createdAt,value
2023-01-03T00:02:27.492Z,53.04
2023-01-03T00:05:00.440Z,53.06
2023-01-03T00:07:34.051Z,53.12
2023-01-03T00:10:07.413Z,53.09
2023-01-03T00:12:40.372Z,53.07
2023-01-03T00:15:13.446Z,53.10
2023-01-03T00:17:46.435Z,53.09
2023-01-03T00:20:19.391Z,53.10
2023-01-03T00:22:52.443Z,53.09
2023-01-03T00:25:25.414Z,53.13
2023-01-03T00:27:58.558Z,53.11
2023-01-03T00:30:32.469Z,53.13
2023-01-03T00:33:05.368Z,53.12
2023-01-03T00:35:38.432Z,53.15
2023-01-03T00:38:11.386Z,53.16
2023-01-03T00:40:44.360Z,53.16
2023-01-03T00:43:20.448Z,53.14
2023-01-03T00:45:53.520Z,53.15
2023-01-03T00:48:26.506Z,53.18
2023-01-03T00:50:59.490Z,53.18
2023-01-03T00:53:32.109Z,53.20
2023-01-03T00:56:05.409Z,53.21
2023-01-03T00:58:38.424Z,53.20
2023-01-03T01:01:11.680Z,53.22
2023-01-03T01:03:44.491Z,53.19
2023-01-03T01:06:17.397Z,53.22
2023-01-03T01:08:50.457Z,53.23
2023-01-03T01:11:23.537Z,53.25
2023-01-03T01:13:56.539Z,53.23
2023-01-03T01:16:29.592Z,53.28
2023-01-03T01:19:02.513Z,53.26
2023-01-03T01:21:35.611Z,53.26
2023-01-03T01:24:12.770Z,53.25
2023-01-03T01:26:41.581Z,53.24
2023-01-03T01:29:14.417Z,53.30
2023-01-03T01:31:47.466Z,53.33
2023-01-03T01:34:20.483Z,53.32
2023-01-03T01:36:53.590Z,53.33
2023-01-03T01:39:26.541Z,53.37
2023-01-03T01:41:59.533Z,53.39
2023-01-03T01:44:32.547Z,53.56
2023-01-03T01:47:05.516Z,53.54
2023-01-03T01:49:38.631Z,53.54
2023-01-03T01:52:11.490Z,53.53
2023-01-03T01:54:44.576Z,53.54
2023-01-03T01:57:17.557Z,53.57
2023-01-03T01:59:50.495Z,53.55
2023-01-03T02:02:23.864Z,53.55
2023-01-03T02:04:56.514Z,53.55
2023-01-03T02:07:29.504Z,53.55
2023-01-03T02:10:02.608Z,53.54
2023-01-03T02:12:35.651Z,53.53
2023-01-03T02:15:08.642Z,53.54
2023-01-03T02:17:41.625Z,53.53
2023-01-03T02:20:14.536Z,53.54
2023-01-03T02:22:47.633Z,53.56
2023-01-03T02:25:20.569Z,53.62
2023-01-03T02:27:53.664Z,53.58
2023-01-03T02:30:26.678Z,53.63
2023-01-03T02:32:59.655Z,53.62
2023-01-03T02:35:32.626Z,53.63
2023-01-03T02:38:05.648Z,53.60
2023-01-03T02:40:38.425Z,53.58
2023-01-03T02:43:11.563Z,53.59
2023-01-03T02:45:44.763Z,53.60
2023-01-03T02:48:17.575Z,53.61
2023-01-03T02:50:50.616Z,53.59
2023-01-03T02:53:23.685Z,53.58
2023-01-03T02:55:56.553Z,53.60
2023-01-03T02:58:29.658Z,53.62
2023-01-03T03:01:02.466Z,53.58
2023-01-03T03:03:35.667Z,53.60
2023-01-03T03:06:08.688Z,53.56
2023-01-03T03:08:41.609Z,53.56
2023-01-03T03:11:14.628Z,53.58
2023-01-03T03:13:47.724Z,53.61
2023-01-03T03:16:20.846Z,53.60
2023-01-03T03:18:53.710Z,53.59
2023-01-03T03:21:26.781Z,53.60
2023-01-03T03:23:59.733Z,53.63
2023-01-03T03:26:32.553Z,53.63
2023-01-03T03:29:05.778Z,53.61
2023-01-03T03:31:38.843Z,53.62
2023-01-03T03:34:11.634Z,53.61
2023-01-03T03:36:44.756Z,53.62
2023-01-03T03:39:17.654Z,53.62
2023-01-03T03:41:50.765Z,53.65
2023-01-03T03:44:23.685Z,53.64
2023-01-03T03:46:57.103Z,53.66
2023-01-03T03:49:29.780Z,53.63
2023-01-03T03:52:02.731Z,53.64
2023-01-03T03:54:35.797Z,53.63
2023-01-03T03:57:08.650Z,53.60
2023-01-03T03:59:41.733Z,53.60
2023-01-03T04:02:14.832Z,53.60
2023-01-03T04:04:47.790Z,53.58
2023-01-03T04:07:20.720Z,53.58
2023-01-03T04:09:53.809Z,53.59
2023-01-03T04:12:26.731Z,53.59
2023-01-03T04:14:59.841Z,53.58
2023-01-03T04:17:32.853Z,53.56
2023-01-03T04:20:05.806Z,53.58
2023-01-03T04:22:38.734Z,53.54
2023-01-03T04:25:11.744Z,53.56
2023-01-03T04:27:44.790Z,53.57
2023-01-03T04:30:17.714Z,53.54
2023-01-03T04:32:50.846Z,53.57
2023-01-03T04:35:23.833Z,53.55
2023-01-03T04:37:56.716Z,53.55
2023-01-03T04:40:29.860Z,53.54
2023-01-03T04:43:02.844Z,53.58
2023-01-03T04:45:35.816Z,53.55
2023-01-03T04:48:08.846Z,53.54
2023-01-03T04:50:41.651Z,53.52
2023-01-03T04:53:14.808Z,53.53
2023-01-03T04:55:47.883Z,53.54
2023-01-03T04:58:20.779Z,53.52
2023-01-03T05:00:53.783Z,53.54
2023-01-03T05:03:28.044Z,53.52
2023-01-03T05:05:59.777Z,53.53
2023-01-03T05:08:32.900Z,53.50
2023-01-03T05:11:05.855Z,53.53
2023-01-03T05:13:38.909Z,53.54
2023-01-03T05:16:11.879Z,53.53
2023-01-03T05:18:44.944Z,53.54
2023-01-03T05:21:17.816Z,53.54
2023-01-03T05:23:50.859Z,53.54
2023-01-03T05:26:23.847Z,53.58
2023-01-03T05:28:56.925Z,53.59
2023-01-03T05:31:30.006Z,53.59
2023-01-03T05:34:02.859Z,53.58
2023-01-03T05:36:35.932Z,53.57
2023-01-03T05:39:08.962Z,53.59
2023-01-03T05:41:41.922Z,53.56
2023-01-03T05:44:14.849Z,53.59
2023-01-03T05:46:47.718Z,53.54
2023-01-03T05:49:20.897Z,53.58
2023-01-03T05:51:53.952Z,53.54
2023-01-03T05:54:26.880Z,53.55
2023-01-03T05:56:59.978Z,53.59
2023-01-03T05:59:32.903Z,53.58
2023-01-03T06:02:06.171Z,53.59
2023-01-03T06:04:38.996Z,53.58
2023-01-03T06:07:11.597Z,53.58
2023-01-03T06:09:44.902Z,53.55
2023-01-03T06:12:17.725Z,53.54
2023-01-03T06:14:50.885Z,53.55
2023-01-03T06:17:24.005Z,53.53
2023-01-03T06:19:56.953Z,53.53
2023-01-03T06:22:29.884Z,53.54
2023-01-03T06:25:03.032Z,53.53
2023-01-03T06:27:35.890Z,53.52
2023-01-03T06:30:09.010Z,53.51
2023-01-03T06:32:41.998Z,53.53
2023-01-03T06:35:14.914Z,53.52
2023-01-03T06:37:48.107Z,53.54
2023-01-03T06:40:21.954Z,53.55
2023-01-03T06:42:54.894Z,53.54
2023-01-03T06:45:28.052Z,53.52
2023-01-03T06:48:01.017Z,53.54
2023-01-03T06:50:33.777Z,53.53
2023-01-03T06:53:07.000Z,53.53
2023-01-03T06:55:40.056Z,53.56
2023-01-03T06:58:13.104Z,53.55
2023-01-03T07:00:45.710Z,53.53
2023-01-03T07:03:19.020Z,53.57
2023-01-03T07:05:52.008Z,53.56
2023-01-03T07:08:25.042Z,53.54
2023-01-03T07:10:58.082Z,53.54
2023-01-03T07:13:31.041Z,53.54
2023-01-03T07:16:04.068Z,53.54
2023-01-03T07:18:36.863Z,53.53
2023-01-03T07:21:09.929Z,53.53
2023-01-03T07:23:43.076Z,53.53
2023-01-03T07:26:16.011Z,53.52
2023-01-03T07:28:49.100Z,53.52
2023-01-03T07:31:23.155Z,53.52
2023-01-03T07:33:56.125Z,53.52
2023-01-03T07:36:28.914Z,53.52
2023-01-03T07:39:02.018Z,53.51
2023-01-03T07:41:34.942Z,53.50
2023-01-03T07:44:07.796Z,53.53
2023-01-03T07:46:41.192Z,53.54
2023-01-03T07:49:13.748Z,53.54
2023-01-03T07:51:46.853Z,53.55
2023-01-03T07:54:19.944Z,53.54
2023-01-03T07:56:52.858Z,53.57
2023-01-03T07:59:26.156Z,53.56
2023-01-03T08:01:59.176Z,53.57
2023-01-03T08:04:32.117Z,53.58
2023-01-03T08:07:04.794Z,53.58
2023-01-03T08:09:37.760Z,53.58
2023-01-03T08:12:10.781Z,53.55
2023-01-03T08:14:43.932Z,53.60
2023-01-03T08:17:17.105Z,53.61
2023-01-03T08:19:50.155Z,53.63
2023-01-03T08:22:22.981Z,53.70
2023-01-03T08:24:56.127Z,53.70
2023-01-03T08:27:29.208Z,53.71
2023-01-03T08:30:02.205Z,53.69
2023-01-03T08:32:35.130Z,53.70
2023-01-03T08:35:08.220Z,53.70
2023-01-03T08:37:41.175Z,53.69
2023-01-03T08:40:14.193Z,53.68
2023-01-03T08:42:47.097Z,53.68
2023-01-03T08:45:20.229Z,53.70
2023-01-03T08:47:52.891Z,53.65
2023-01-03T08:50:26.107Z,53.64
2023-01-03T08:52:59.248Z,53.65
2023-01-03T08:55:32.124Z,53.65
2023-01-03T08:58:05.239Z,53.67
2023-01-03T09:00:37.974Z,53.64
2023-01-03T09:03:11.394Z,53.65
2023-01-03T09:05:44.194Z,53.63
2023-01-03T09:08:17.273Z,53.65
2023-01-03T09:10:50.241Z,53.64
2023-01-03T09:13:23.203Z,53.64
2023-01-03T09:15:55.951Z,53.67
2023-01-03T09:18:29.130Z,53.66
2023-01-03T09:21:02.263Z,53.64
2023-01-03T09:23:34.930Z,53.64
2023-01-03T09:26:07.998Z,53.63
2023-01-03T09:28:41.064Z,53.65
2023-01-03T09:31:14.202Z,53.61
2023-01-03T09:33:47.178Z,51.25
2023-01-03T09:36:21.876Z,45.27
2023-01-03T09:38:55.323Z,44.86
2023-01-03T09:41:28.258Z,44.05
2023-01-03T09:44:01.234Z,44.36
2023-01-03T09:46:33.970Z,43.64
2023-01-03T09:49:06.946Z,44.85
2023-01-03T09:51:40.217Z,46.49
2023-01-03T09:54:13.218Z,47.09
2023-01-03T09:56:46.228Z,47.66
2023-01-03T09:59:19.000Z,48.29
2023-01-03T10:01:54.425Z,48.93
2023-01-03T10:04:27.219Z,49.17
2023-01-03T10:07:00.355Z,49.48
2023-01-03T10:09:33.272Z,49.81
2023-01-03T10:12:06.139Z,49.91
2023-01-03T10:14:39.360Z,50.16
2023-01-03T10:17:12.253Z,50.29
2023-01-03T10:19:45.251Z,50.37
2023-01-03T10:22:18.228Z,50.51
2023-01-03T10:24:51.287Z,50.62
2023-01-03T10:27:24.151Z,50.67
2023-01-03T10:29:57.300Z,50.78
2023-01-03T10:32:30.365Z,50.88
2023-01-03T10:35:03.282Z,50.95
2023-01-03T10:37:36.142Z,50.98
2023-01-03T10:40:09.026Z,51.00
2023-01-03T10:42:42.106Z,51.08
2023-01-03T10:45:15.059Z,51.12
2023-01-03T10:47:48.331Z,51.14
2023-01-03T10:50:21.382Z,51.22
2023-01-03T10:52:54.290Z,51.26
2023-01-03T10:55:27.393Z,51.32
2023-01-03T10:58:00.033Z,51.33
2023-01-03T11:03:23.363Z,51.32
2023-01-03T11:05:56.435Z,51.48
2023-01-03T11:08:29.214Z,51.49
2023-01-03T11:11:02.091Z,51.48
2023-01-03T11:13:35.287Z,51.52
2023-01-03T11:16:08.553Z,51.54
2023-01-03T11:18:42.153Z,51.57
2023-01-03T11:21:15.113Z,51.55
2023-01-03T11:23:48.198Z,51.63
2023-01-03T11:26:21.110Z,51.65
2023-01-03T11:28:54.460Z,51.63
2023-01-03T11:31:27.436Z,51.66
2023-01-03T11:34:00.472Z,51.69
2023-01-03T11:36:33.398Z,51.65
2023-01-03T11:39:10.972Z,51.70
2023-01-03T11:41:39.398Z,51.69
2023-01-03T11:44:12.415Z,51.68
2023-01-03T11:46:45.315Z,51.76
2023-01-03T11:49:18.115Z,51.75
2023-01-03T11:51:51.114Z,51.73
2023-01-03T11:54:24.221Z,51.74
2023-01-03T11:56:57.404Z,51.72
2023-01-03T11:59:30.312Z,51.75
2023-01-03T12:02:03.519Z,51.75
2023-01-03T12:04:36.431Z,51.77
2023-01-03T12:07:45.840Z,51.78
2023-01-03T12:09:42.522Z,51.74
2023-01-03T12:12:15.448Z,51.79
2023-01-03T12:14:48.240Z,51.76
2023-01-03T12:17:21.318Z,51.79
2023-01-03T12:19:54.212Z,51.82
2023-01-03T12:22:27.193Z,51.82
2023-01-03T12:25:05.185Z,51.83
2023-01-03T12:27:33.364Z,51.86
2023-01-03T12:30:06.237Z,51.88
2023-01-03T12:32:39.480Z,51.87
2023-01-03T12:35:12.432Z,51.89
2023-01-03T12:37:45.506Z,51.87
2023-01-03T12:40:18.561Z,51.88
2023-01-03T12:42:51.198Z,51.85
2023-01-03T12:45:24.333Z,51.82
2023-01-03T12:47:57.226Z,51.80
2023-01-03T12:50:30.210Z,51.70
2023-01-03T12:53:03.429Z,51.60
2023-01-03T12:55:36.555Z,51.67
2023-01-03T12:58:09.333Z,51.70
2023-01-03T13:00:42.204Z,51.72
2023-01-03T13:03:18.498Z,51.69
2023-01-03T13:05:51.241Z,51.68
2023-01-03T13:08:24.406Z,51.66
2023-01-03T13:10:57.528Z,51.71
2023-01-03T13:13:30.386Z,51.70
2023-01-03T13:16:03.654Z,51.73
2023-01-03T13:18:36.646Z,51.75
2023-01-03T13:21:09.433Z,51.74
2023-01-03T13:23:42.401Z,51.74
2023-01-03T13:26:15.255Z,51.77
2023-01-03T13:28:48.474Z,51.71
2023-01-03T13:31:21.483Z,51.75
2023-01-03T13:33:54.398Z,51.75
2023-01-03T13:36:27.270Z,51.77
2023-01-03T13:39:00.462Z,51.76
2023-01-03T13:41:33.362Z,51.80
2023-01-03T13:44:06.514Z,51.81
2023-01-03T13:46:39.552Z,51.78
2023-01-03T13:49:12.295Z,51.79
2023-01-03T13:51:45.478Z,51.78
2023-01-03T13:54:18.526Z,51.78
2023-01-03T13:56:51.637Z,51.80
2023-01-03T13:59:27.630Z,51.74
2023-01-03T14:02:00.758Z,51.77
2023-01-03T14:04:33.611Z,51.81
2023-01-03T14:07:06.385Z,51.83
2023-01-03T14:09:39.357Z,51.81
2023-01-03T14:12:12.559Z,51.85
2023-01-03T14:14:45.865Z,51.85
2023-01-03T14:17:18.634Z,51.85
2023-01-03T14:19:51.677Z,51.80
2023-01-03T14:22:31.442Z,51.83
2023-01-03T14:24:59.335Z,51.86
2023-01-03T14:27:32.648Z,51.86
2023-01-03T14:30:05.557Z,51.78
2023-01-03T14:32:38.603Z,51.84
2023-01-03T14:35:11.421Z,51.66
2023-01-03T14:37:44.481Z,51.73
2023-01-03T14:40:17.645Z,51.81
2023-01-03T14:42:50.713Z,51.84
2023-01-03T14:45:23.547Z,51.90
2023-01-03T14:47:56.752Z,51.92
2023-01-03T14:50:29.692Z,51.92
2023-01-03T14:53:02.696Z,51.89
2023-01-03T14:55:35.388Z,51.83
2023-01-03T14:58:08.740Z,51.60
2023-01-03T15:00:42.067Z,51.60
2023-01-03T15:03:16.135Z,51.54
2023-01-03T15:05:49.767Z,51.56
2023-01-03T15:08:22.682Z,51.49
2023-01-03T15:10:55.858Z,51.45
2023-01-03T15:13:29.815Z,51.38
2023-01-03T15:16:02.879Z,51.28
2023-01-03T15:18:35.678Z,51.30
2023-01-03T15:21:08.460Z,51.27
2023-01-03T15:23:41.443Z,51.21
2023-01-03T15:26:14.696Z,51.04
2023-01-03T15:28:47.515Z,51.09
2023-01-03T15:31:20.842Z,51.14
2023-01-03T15:33:53.784Z,51.25
2023-01-03T15:36:26.900Z,51.23
2023-01-03T15:39:00.436Z,51.31
2023-01-03T15:41:33.438Z,51.34
2023-01-03T15:44:06.855Z,51.32
2023-01-03T15:46:39.778Z,51.39
2023-01-03T15:49:12.733Z,51.42
2023-01-03T15:51:45.482Z,51.47
2023-01-03T15:54:18.481Z,51.49
2023-01-03T15:56:51.651Z,51.48
2023-01-03T15:59:24.819Z,51.50
2023-01-03T16:01:57.957Z,51.51
2023-01-03T16:04:30.898Z,51.51
2023-01-03T16:07:03.775Z,51.51
2023-01-03T16:09:36.711Z,51.57
2023-01-03T16:12:09.672Z,51.51
2023-01-03T16:14:42.847Z,51.51
2023-01-03T16:17:20.832Z,51.56
2023-01-03T16:19:48.649Z,51.56
2023-01-03T16:22:34.574Z,51.54
2023-01-03T16:24:54.667Z,51.57
2023-01-03T16:27:27.517Z,51.53
2023-01-03T16:30:00.777Z,51.59
2023-01-03T16:32:33.823Z,51.58
2023-01-03T16:35:06.526Z,51.58
2023-01-03T16:37:39.724Z,51.58
2023-01-03T16:40:12.519Z,51.59
2023-01-03T16:42:45.919Z,51.59
2023-01-03T16:45:18.761Z,51.57
2023-01-03T16:47:51.893Z,51.56
2023-01-03T16:50:24.546Z,51.59
2023-01-03T16:52:57.733Z,51.62
2023-01-03T16:55:30.545Z,51.59
2023-01-03T16:58:03.818Z,51.62
2023-01-03T17:00:36.550Z,51.53
2023-01-03T17:03:10.055Z,51.61
2023-01-03T17:05:42.815Z,51.64
2023-01-03T17:08:15.972Z,51.61
2023-01-03T17:10:48.765Z,51.60
2023-01-03T17:13:21.905Z,51.59
2023-01-03T17:15:54.963Z,51.62
2023-01-03T17:18:27.681Z,51.60
2023-01-03T17:21:00.974Z,51.60
2023-01-03T17:23:33.994Z,51.59
2023-01-03T17:26:06.997Z,51.61
2023-01-03T17:28:39.946Z,51.63
2023-01-03T17:31:12.987Z,51.61
2023-01-03T17:33:46.016Z,51.63
2023-01-03T17:36:18.917Z,51.61
2023-01-03T17:38:51.939Z,51.62
2023-01-03T17:41:24.808Z,51.64
2023-01-03T17:43:57.639Z,51.64
2023-01-03T17:46:33.836Z,51.63
2023-01-03T17:49:06.827Z,51.58
2023-01-03T17:51:39.872Z,51.68
2023-01-03T17:54:12.934Z,51.61
2023-01-03T17:56:45.664Z,51.67
2023-01-03T17:59:18.708Z,51.58
2023-01-03T18:01:52.086Z,51.61
2023-01-03T18:04:38.239Z,51.50
2023-01-03T18:06:58.989Z,51.57
2023-01-03T18:09:31.691Z,51.51
2023-01-03T18:12:07.742Z,51.49
2023-01-03T18:14:40.696Z,51.48
2023-01-03T18:17:13.962Z,51.47
2023-01-03T18:19:46.790Z,51.40
2023-01-03T18:22:19.893Z,51.44
2023-01-03T18:24:53.023Z,51.43
2023-01-03T18:27:25.727Z,51.42
2023-01-03T18:29:58.882Z,51.40
2023-01-03T18:32:31.850Z,51.50
2023-01-03T18:35:04.743Z,51.48
2023-01-03T18:37:38.106Z,51.48
2023-01-03T18:40:10.969Z,51.44
2023-01-03T18:42:44.016Z,51.44
2023-01-03T18:45:16.762Z,51.45
2023-01-03T18:47:50.003Z,51.43
2023-01-03T18:50:22.741Z,51.43
2023-01-03T18:52:56.090Z,51.40
2023-01-03T18:55:29.070Z,51.41
2023-01-03T18:58:01.815Z,51.46
2023-01-03T19:00:34.733Z,51.53
2023-01-03T19:03:08.235Z,51.51
2023-01-03T19:05:40.898Z,51.57
2023-01-03T19:08:17.021Z,51.67
2023-01-03T19:10:49.820Z,51.70
2023-01-03T19:13:22.963Z,51.72
2023-01-03T19:15:55.845Z,51.76
2023-01-03T19:18:28.793Z,51.73
2023-01-03T19:21:01.808Z,51.71
2023-01-03T19:23:34.922Z,51.76
2023-01-03T19:26:07.829Z,51.72
2023-01-03T19:28:41.027Z,51.74
2023-01-03T19:31:13.887Z,51.74
2023-01-03T19:33:46.847Z,51.75
2023-01-03T19:36:20.108Z,51.74
2023-01-03T19:38:52.907Z,51.76
2023-01-03T19:41:26.168Z,51.80
2023-01-03T19:43:58.801Z,51.75
2023-01-03T19:46:31.971Z,51.74
2023-01-03T19:49:05.010Z,51.75
2023-01-03T19:51:37.852Z,51.83
2023-01-03T19:54:10.845Z,51.75
2023-01-03T19:56:44.226Z,51.75
2023-01-03T19:59:17.133Z,51.78
2023-01-03T20:02:23.404Z,51.74
2023-01-03T20:04:23.268Z,51.77
2023-01-03T20:06:56.249Z,51.76
2023-01-03T20:09:29.123Z,51.81
2023-01-03T20:12:01.859Z,51.77
2023-01-03T20:14:35.140Z,51.74
2023-01-03T20:17:08.052Z,51.79
2023-01-03T20:19:41.172Z,51.79
2023-01-03T20:22:30.449Z,51.84
2023-01-03T20:24:46.874Z,51.76
2023-01-03T20:27:20.051Z,51.77
2023-01-03T20:29:52.949Z,51.77
2023-01-03T20:32:25.867Z,51.78
2023-01-03T20:35:11.934Z,51.79
2023-01-03T20:37:31.909Z,51.81
2023-01-03T20:40:05.064Z,51.80
2023-01-03T20:42:51.851Z,51.81
2023-01-03T20:45:25.105Z,51.83
2023-01-03T20:47:57.922Z,51.78
2023-01-03T20:50:31.116Z,51.80
2023-01-03T20:53:04.173Z,51.72
2023-01-03T20:55:36.954Z,51.76
2023-01-03T20:58:09.920Z,51.76
2023-01-03T21:00:43.242Z,51.78
2023-01-03T21:03:16.169Z,51.74
2023-01-03T21:05:49.001Z,51.76
2023-01-03T21:08:22.040Z,51.73
2023-01-03T21:10:55.096Z,51.75
2023-01-03T21:13:27.999Z,51.69
2023-01-03T21:16:00.996Z,51.74
2023-01-03T21:18:34.141Z,51.76
2023-01-03T21:21:07.097Z,51.77
2023-01-03T21:23:40.126Z,51.76
2023-01-03T21:26:12.969Z,51.77
2023-01-03T21:28:46.147Z,51.75
2023-01-03T21:31:19.006Z,51.71
2023-01-03T21:33:51.992Z,51.74
2023-01-03T21:36:25.090Z,51.71
2023-01-03T21:38:58.502Z,51.71
2023-01-03T21:41:31.273Z,51.64
2023-01-03T21:44:04.254Z,51.73
2023-01-03T21:46:37.365Z,51.67
2023-01-03T21:49:10.303Z,51.67
2023-01-03T21:51:43.015Z,51.65
2023-01-03T21:54:16.034Z,51.72
2023-01-03T21:56:49.166Z,51.70
2023-01-03T21:59:22.143Z,51.66
2023-01-03T22:01:55.349Z,51.68
2023-01-03T22:04:28.187Z,50.99
2023-01-03T22:07:01.876Z,50.26
2023-01-03T22:09:34.303Z,50.01
2023-01-03T22:12:07.345Z,50.42
2023-01-03T22:14:40.021Z,50.62
2023-01-03T22:17:13.129Z,50.72
2023-01-03T22:19:46.138Z,50.86
2023-01-03T22:22:19.248Z,50.97
2023-01-03T22:24:52.401Z,50.92
2023-01-03T22:27:25.107Z,50.85
2023-01-03T22:29:58.395Z,50.93
2023-01-03T22:32:31.411Z,50.90
2023-01-03T22:35:04.352Z,50.98
2023-01-03T22:37:37.245Z,51.05
2023-01-03T22:40:10.238Z,51.14
2023-01-03T22:42:43.141Z,51.14
2023-01-03T22:45:16.344Z,51.27
2023-01-03T22:47:49.316Z,51.20
2023-01-03T22:50:22.489Z,51.20
2023-01-03T22:52:55.391Z,51.26
2023-01-03T22:55:32.062Z,51.32
2023-01-03T22:58:01.206Z,51.29
2023-01-03T23:00:34.117Z,51.33
2023-01-03T23:03:07.522Z,51.39
2023-01-03T23:05:40.551Z,51.38
2023-01-03T23:08:13.405Z,51.43
2023-01-03T23:10:46.590Z,51.37
2023-01-03T23:13:20.427Z,51.39
2023-01-03T23:15:56.378Z,51.39
2023-01-03T23:18:29.437Z,51.44
2023-01-03T23:21:02.467Z,51.42
2023-01-03T23:23:35.449Z,51.45
2023-01-03T23:26:08.549Z,51.48
2023-01-03T23:28:41.490Z,51.52
2023-01-03T23:31:14.238Z,51.58
2023-01-03T23:33:47.466Z,51.62
2023-01-03T23:36:20.416Z,51.67
2023-01-03T23:38:53.447Z,51.80
2023-01-03T23:41:26.568Z,51.84
2023-01-03T23:43:59.522Z,51.92
2023-01-03T23:46:32.673Z,51.93
2023-01-03T23:49:05.408Z,51.95
2023-01-03T23:51:38.465Z,51.95
2023-01-03T23:54:11.408Z,51.96
2023-01-03T23:56:44.590Z,51.95
2023-01-03T23:59:17.478Z,51.96
